sensor_id;sensor_type;location;lat;lon;timestamp;temperature;humidity
1455;DHT22;721;48.168;12.818;2024-02-28T00:01:48;5.40;28.20
1455;DHT22;721;48.168;12.818;2024-02-28T00:04:16;5.50;28.60
1455;DHT22;721;48.168;12.818;2024-02-28T00:06:43;5.70;27.60
1455;DHT22;721;48.168;12.818;2024-02-28T00:09:12;5.60;26.80
1455;DHT22;721;48.168;12.818;2024-02-28T00:11:42;5.60;26.80
1455;DHT22;721;48.168;12.818;2024-02-28T00:14:09;5.60;27.20
1455;DHT22;721;48.168;12.818;2024-02-28T00:16:36;5.60;28.00
1455;DHT22;721;48.168;12.818;2024-02-28T00:19:03;5.60;27.80
1455;DHT22;721;48.168;12.818;2024-02-28T00:21:31;5.60;27.80
1455;DHT22;721;48.168;12.818;2024-02-28T00:23:57;5.70;27.60
1455;DHT22;721;48.168;12.818;2024-02-28T00:26:25;5.70;26.50
1455;DHT22;721;48.168;12.818;2024-02-28T00:28:51;5.70;26.60
1455;DHT22;721;48.168;12.818;2024-02-28T00:31:19;5.80;27.30
1455;DHT22;721;48.168;12.818;2024-02-28T00:33:47;5.70;27.10
1455;DHT22;721;48.168;12.818;2024-02-28T00:36:13;5.70;27.40
1455;DHT22;721;48.168;12.818;2024-02-28T00:38:42;5.70;28.00
1455;DHT22;721;48.168;12.818;2024-02-28T00:41:09;5.60;28.90
1455;DHT22;721;48.168;12.818;2024-02-28T00:43:36;5.50;29.40
1455;DHT22;721;48.168;12.818;2024-02-28T00:46:03;5.60;30.00
1455;DHT22;721;48.168;12.818;2024-02-28T00:48:30;5.50;29.90
1455;DHT22;721;48.168;12.818;2024-02-28T00:50:56;5.50;30.70
1455;DHT22;721;48.168;12.818;2024-02-28T00:53:23;5.60;31.60
1455;DHT22;721;48.168;12.818;2024-02-28T00:55:51;5.60;31.10
1455;DHT22;721;48.168;12.818;2024-02-28T00:58:18;5.70;30.50
1455;DHT22;721;48.168;12.818;2024-02-28T01:00:45;5.60;31.20
1455;DHT22;721;48.168;12.818;2024-02-28T01:03:12;5.50;31.10
1455;DHT22;721;48.168;12.818;2024-02-28T01:05:41;5.40;32.40
1455;DHT22;721;48.168;12.818;2024-02-28T01:08:07;5.60;34.00
1455;DHT22;721;48.168;12.818;2024-02-28T01:10:34;5.40;34.20
1455;DHT22;721;48.168;12.818;2024-02-28T01:13:03;5.40;33.80
1455;DHT22;721;48.168;12.818;2024-02-28T01:15:30;5.40;34.30
1455;DHT22;721;48.168;12.818;2024-02-28T01:17:57;5.40;34.20
1455;DHT22;721;48.168;12.818;2024-02-28T01:20:24;5.30;34.40
1455;DHT22;721;48.168;12.818;2024-02-28T01:22:51;5.30;36.50
1455;DHT22;721;48.168;12.818;2024-02-28T01:25:17;5.20;36.50
1455;DHT22;721;48.168;12.818;2024-02-28T01:27:44;5.50;37.20
1455;DHT22;721;48.168;12.818;2024-02-28T01:30:13;5.60;36.60
1455;DHT22;721;48.168;12.818;2024-02-28T01:32:40;5.20;36.90
1455;DHT22;721;48.168;12.818;2024-02-28T01:35:08;5.10;37.00
1455;DHT22;721;48.168;12.818;2024-02-28T01:37:35;5.20;37.10
1455;DHT22;721;48.168;12.818;2024-02-28T01:40:03;5.20;37.70
1455;DHT22;721;48.168;12.818;2024-02-28T01:42:30;5.10;37.10
1455;DHT22;721;48.168;12.818;2024-02-28T01:44:57;5.20;37.80
1455;DHT22;721;48.168;12.818;2024-02-28T01:47:25;5.20;35.70
1455;DHT22;721;48.168;12.818;2024-02-28T01:49:52;5.10;35.80
1455;DHT22;721;48.168;12.818;2024-02-28T01:52:20;5.00;36.90
1455;DHT22;721;48.168;12.818;2024-02-28T01:54:47;5.00;38.20
1455;DHT22;721;48.168;12.818;2024-02-28T01:57:14;5.30;37.60
1455;DHT22;721;48.168;12.818;2024-02-28T01:59:42;4.90;37.90
1455;DHT22;721;48.168;12.818;2024-02-28T02:02:08;5.30;38.50
1455;DHT22;721;48.168;12.818;2024-02-28T02:04:37;5.00;37.50
1455;DHT22;721;48.168;12.818;2024-02-28T02:07:04;5.10;37.00
1455;DHT22;721;48.168;12.818;2024-02-28T02:09:33;5.10;36.30
1455;DHT22;721;48.168;12.818;2024-02-28T02:12:01;5.20;35.60
1455;DHT22;721;48.168;12.818;2024-02-28T02:14:27;5.10;34.40
1455;DHT22;721;48.168;12.818;2024-02-28T02:16:54;5.20;32.90
1455;DHT22;721;48.168;12.818;2024-02-28T02:19:21;5.10;32.20
1455;DHT22;721;48.168;12.818;2024-02-28T02:21:53;5.10;33.40
1455;DHT22;721;48.168;12.818;2024-02-28T02:24:21;5.10;34.10
1455;DHT22;721;48.168;12.818;2024-02-28T02:26:48;5.20;33.00
1455;DHT22;721;48.168;12.818;2024-02-28T02:29:17;5.20;32.20
1455;DHT22;721;48.168;12.818;2024-02-28T02:31:44;5.20;31.00
1455;DHT22;721;48.168;12.818;2024-02-28T02:34:11;5.30;29.80
1455;DHT22;721;48.168;12.818;2024-02-28T02:36:38;5.30;28.60
1455;DHT22;721;48.168;12.818;2024-02-28T02:39:05;5.20;28.10
1455;DHT22;721;48.168;12.818;2024-02-28T02:41:34;6.00;28.90
1455;DHT22;721;48.168;12.818;2024-02-28T02:44:01;5.10;28.00
1455;DHT22;721;48.168;12.818;2024-02-28T02:46:28;5.10;27.50
1455;DHT22;721;48.168;12.818;2024-02-28T02:48:55;5.10;27.80
1455;DHT22;721;48.168;12.818;2024-02-28T02:51:22;5.10;27.90
1455;DHT22;721;48.168;12.818;2024-02-28T02:53:48;5.00;28.60
1455;DHT22;721;48.168;12.818;2024-02-28T02:56:15;5.00;29.00
1455;DHT22;721;48.168;12.818;2024-02-28T02:58:43;5.00;28.10
1455;DHT22;721;48.168;12.818;2024-02-28T03:01:10;5.00;28.00
1455;DHT22;721;48.168;12.818;2024-02-28T03:03:37;5.00;27.90
1455;DHT22;721;48.168;12.818;2024-02-28T03:06:04;5.00;26.80
1455;DHT22;721;48.168;12.818;2024-02-28T03:08:31;4.90;25.90
1455;DHT22;721;48.168;12.818;2024-02-28T03:10:58;4.90;26.90
1455;DHT22;721;48.168;12.818;2024-02-28T03:13:25;4.90;26.00
1455;DHT22;721;48.168;12.818;2024-02-28T03:15:53;4.80;26.90
1455;DHT22;721;48.168;12.818;2024-02-28T03:18:20;4.80;27.00
1455;DHT22;721;48.168;12.818;2024-02-28T03:20:47;4.60;27.60
1455;DHT22;721;48.168;12.818;2024-02-28T03:23:13;4.60;28.80
1455;DHT22;721;48.168;12.818;2024-02-28T03:25:40;4.60;28.20
1455;DHT22;721;48.168;12.818;2024-02-28T03:28:07;4.70;28.20
1455;DHT22;721;48.168;12.818;2024-02-28T03:30:34;4.40;28.30
1455;DHT22;721;48.168;12.818;2024-02-28T03:33:03;4.40;30.50
1455;DHT22;721;48.168;12.818;2024-02-28T03:35:29;4.40;30.00
1455;DHT22;721;48.168;12.818;2024-02-28T03:37:56;4.50;29.30
1455;DHT22;721;48.168;12.818;2024-02-28T03:40:23;4.50;28.90
1455;DHT22;721;48.168;12.818;2024-02-28T03:42:50;4.80;27.80
1455;DHT22;721;48.168;12.818;2024-02-28T03:45:17;4.40;27.70
1455;DHT22;721;48.168;12.818;2024-02-28T03:47:45;4.20;29.80
1455;DHT22;721;48.168;12.818;2024-02-28T03:50:13;4.50;30.50
1455;DHT22;721;48.168;12.818;2024-02-28T03:52:40;4.20;30.20
1455;DHT22;721;48.168;12.818;2024-02-28T03:55:07;4.20;31.30
1455;DHT22;721;48.168;12.818;2024-02-28T03:57:34;4.20;30.40
1455;DHT22;721;48.168;12.818;2024-02-28T04:00:01;4.10;30.60
1455;DHT22;721;48.168;12.818;2024-02-28T04:02:28;4.00;32.00
1455;DHT22;721;48.168;12.818;2024-02-28T04:04:55;4.00;32.50
1455;DHT22;721;48.168;12.818;2024-02-28T04:07:23;4.00;32.60
1455;DHT22;721;48.168;12.818;2024-02-28T04:09:50;4.10;31.80
1455;DHT22;721;48.168;12.818;2024-02-28T04:12:17;4.10;31.20
1455;DHT22;721;48.168;12.818;2024-02-28T04:14:44;4.10;32.10
1455;DHT22;721;48.168;12.818;2024-02-28T04:17:10;4.10;32.20
1455;DHT22;721;48.168;12.818;2024-02-28T04:19:37;4.30;32.90
1455;DHT22;721;48.168;12.818;2024-02-28T04:22:05;4.10;33.00
1455;DHT22;721;48.168;12.818;2024-02-28T04:24:33;4.10;34.40
1455;DHT22;721;48.168;12.818;2024-02-28T04:27:02;4.60;34.90
1455;DHT22;721;48.168;12.818;2024-02-28T04:29:31;4.10;33.50
1455;DHT22;721;48.168;12.818;2024-02-28T04:31:58;4.50;36.50
1455;DHT22;721;48.168;12.818;2024-02-28T04:34:24;4.00;37.70
1455;DHT22;721;48.168;12.818;2024-02-28T04:36:51;4.80;39.20
1455;DHT22;721;48.168;12.818;2024-02-28T04:39:18;3.90;40.70
1455;DHT22;721;48.168;12.818;2024-02-28T04:41:46;3.90;43.50
1455;DHT22;721;48.168;12.818;2024-02-28T04:44:13;3.80;45.60
1455;DHT22;721;48.168;12.818;2024-02-28T04:46:40;4.30;45.80
1455;DHT22;721;48.168;12.818;2024-02-28T04:49:06;4.00;45.60
1455;DHT22;721;48.168;12.818;2024-02-28T04:51:34;4.00;44.60
1455;DHT22;721;48.168;12.818;2024-02-28T04:54:01;4.20;44.20
1455;DHT22;721;48.168;12.818;2024-02-28T04:56:28;4.20;43.60
1455;DHT22;721;48.168;12.818;2024-02-28T04:58:56;4.90;43.10
1455;DHT22;721;48.168;12.818;2024-02-28T05:01:23;4.30;41.10
1455;DHT22;721;48.168;12.818;2024-02-28T05:03:50;4.40;39.60
1455;DHT22;721;48.168;12.818;2024-02-28T05:06:17;4.40;38.40
1455;DHT22;721;48.168;12.818;2024-02-28T05:08:44;4.40;38.70
1455;DHT22;721;48.168;12.818;2024-02-28T05:11:10;4.50;38.60
1455;DHT22;721;48.168;12.818;2024-02-28T05:13:37;4.50;39.40
1455;DHT22;721;48.168;12.818;2024-02-28T05:16:12;4.60;37.60
1455;DHT22;721;48.168;12.818;2024-02-28T05:18:39;4.50;37.60
1455;DHT22;721;48.168;12.818;2024-02-28T05:21:06;4.50;38.20
1455;DHT22;721;48.168;12.818;2024-02-28T05:23:32;4.80;38.70
1455;DHT22;721;48.168;12.818;2024-02-28T05:25:59;4.50;39.10
1455;DHT22;721;48.168;12.818;2024-02-28T05:28:29;4.50;40.00
1455;DHT22;721;48.168;12.818;2024-02-28T05:30:56;4.50;40.40
1455;DHT22;721;48.168;12.818;2024-02-28T05:33:24;4.50;41.30
1455;DHT22;721;48.168;12.818;2024-02-28T05:35:50;4.50;42.60
1455;DHT22;721;48.168;12.818;2024-02-28T05:38:17;4.40;46.00
1455;DHT22;721;48.168;12.818;2024-02-28T05:40:44;4.30;49.50
1455;DHT22;721;48.168;12.818;2024-02-28T05:43:11;4.40;55.80
1455;DHT22;721;48.168;12.818;2024-02-28T05:45:36;4.30;58.10
1455;DHT22;721;48.168;12.818;2024-02-28T05:48:03;4.30;59.30
1455;DHT22;721;48.168;12.818;2024-02-28T05:50:32;4.20;60.00
1455;DHT22;721;48.168;12.818;2024-02-28T05:52:58;4.30;60.20
1455;DHT22;721;48.168;12.818;2024-02-28T05:55:25;4.30;60.30
1455;DHT22;721;48.168;12.818;2024-02-28T05:57:53;4.20;60.70
1455;DHT22;721;48.168;12.818;2024-02-28T06:00:20;4.30;61.70
1455;DHT22;721;48.168;12.818;2024-02-28T06:02:47;4.10;62.40
1455;DHT22;721;48.168;12.818;2024-02-28T06:05:13;4.40;62.70
1455;DHT22;721;48.168;12.818;2024-02-28T06:07:42;4.10;62.60
1455;DHT22;721;48.168;12.818;2024-02-28T06:10:09;4.10;63.40
1455;DHT22;721;48.168;12.818;2024-02-28T06:12:36;4.10;63.60
1455;DHT22;721;48.168;12.818;2024-02-28T06:15:04;4.10;63.10
1455;DHT22;721;48.168;12.818;2024-02-28T06:17:31;4.10;63.80
1455;DHT22;721;48.168;12.818;2024-02-28T06:19:58;4.10;63.80
1455;DHT22;721;48.168;12.818;2024-02-28T06:22:25;4.10;63.80
1455;DHT22;721;48.168;12.818;2024-02-28T06:24:54;4.20;63.70
1455;DHT22;721;48.168;12.818;2024-02-28T06:27:20;4.20;63.70
1455;DHT22;721;48.168;12.818;2024-02-28T06:29:47;4.40;63.80
1455;DHT22;721;48.168;12.818;2024-02-28T06:32:14;4.40;63.00
1455;DHT22;721;48.168;12.818;2024-02-28T06:34:41;4.60;63.40
1455;DHT22;721;48.168;12.818;2024-02-28T06:37:08;4.60;61.60
1455;DHT22;721;48.168;12.818;2024-02-28T06:39:35;4.80;60.00
1455;DHT22;721;48.168;12.818;2024-02-28T06:42:03;4.80;57.40
1455;DHT22;721;48.168;12.818;2024-02-28T06:44:30;4.80;57.40
1455;DHT22;721;48.168;12.818;2024-02-28T06:46:57;4.90;57.90
1455;DHT22;721;48.168;12.818;2024-02-28T06:49:23;5.10;55.40
1455;DHT22;721;48.168;12.818;2024-02-28T06:51:51;5.10;54.00
1455;DHT22;721;48.168;12.818;2024-02-28T06:54:19;5.20;52.30
1455;DHT22;721;48.168;12.818;2024-02-28T06:56:46;5.10;51.50
1455;DHT22;721;48.168;12.818;2024-02-28T06:59:14;5.30;51.40
1455;DHT22;721;48.168;12.818;2024-02-28T07:01:41;5.10;52.00
1455;DHT22;721;48.168;12.818;2024-02-28T07:04:08;5.50;52.50
1455;DHT22;721;48.168;12.818;2024-02-28T07:06:35;5.20;52.70
1455;DHT22;721;48.168;12.818;2024-02-28T07:09:02;5.20;52.30
1455;DHT22;721;48.168;12.818;2024-02-28T07:11:29;5.00;53.60
1455;DHT22;721;48.168;12.818;2024-02-28T07:13:55;5.00;53.70
1455;DHT22;721;48.168;12.818;2024-02-28T07:16:24;5.10;54.20
1455;DHT22;721;48.168;12.818;2024-02-28T07:18:51;5.20;53.40
1455;DHT22;721;48.168;12.818;2024-02-28T07:21:18;5.20;53.20
1455;DHT22;721;48.168;12.818;2024-02-28T07:23:45;5.20;53.40
1455;DHT22;721;48.168;12.818;2024-02-28T07:26:14;5.20;53.40
1455;DHT22;721;48.168;12.818;2024-02-28T07:28:41;5.10;54.40
1455;DHT22;721;48.168;12.818;2024-02-28T07:31:14;5.20;54.60
1455;DHT22;721;48.168;12.818;2024-02-28T07:33:42;5.20;53.70
1455;DHT22;721;48.168;12.818;2024-02-28T07:36:09;5.10;54.40
1455;DHT22;721;48.168;12.818;2024-02-28T07:38:36;5.00;54.70
1455;DHT22;721;48.168;12.818;2024-02-28T07:41:03;5.00;54.90
1455;DHT22;721;48.168;12.818;2024-02-28T07:43:31;4.90;55.90
1455;DHT22;721;48.168;12.818;2024-02-28T07:46:02;5.00;57.10
1455;DHT22;721;48.168;12.818;2024-02-28T07:48:29;5.10;57.30
1455;DHT22;721;48.168;12.818;2024-02-28T07:50:57;5.20;55.90
1455;DHT22;721;48.168;12.818;2024-02-28T07:53:24;5.30;55.90
1455;DHT22;721;48.168;12.818;2024-02-28T07:55:51;5.40;55.60
1455;DHT22;721;48.168;12.818;2024-02-28T07:58:18;5.50;53.50
1455;DHT22;721;48.168;12.818;2024-02-28T08:00:45;5.60;51.60
1455;DHT22;721;48.168;12.818;2024-02-28T08:03:11;5.60;50.50
1455;DHT22;721;48.168;12.818;2024-02-28T08:05:38;5.80;48.60
1455;DHT22;721;48.168;12.818;2024-02-28T08:08:07;5.80;49.00
1455;DHT22;721;48.168;12.818;2024-02-28T08:10:34;5.90;47.20
1455;DHT22;721;48.168;12.818;2024-02-28T08:13:01;5.80;46.80
1455;DHT22;721;48.168;12.818;2024-02-28T08:15:27;5.80;47.70
1455;DHT22;721;48.168;12.818;2024-02-28T08:17:54;5.80;47.90
1455;DHT22;721;48.168;12.818;2024-02-28T08:20:21;5.80;47.20
1455;DHT22;721;48.168;12.818;2024-02-28T08:22:48;5.80;46.80
1455;DHT22;721;48.168;12.818;2024-02-28T08:25:16;5.80;47.90
1455;DHT22;721;48.168;12.818;2024-02-28T08:27:43;5.90;47.90
1455;DHT22;721;48.168;12.818;2024-02-28T08:30:10;6.00;46.00
1455;DHT22;721;48.168;12.818;2024-02-28T08:32:37;6.00;46.20
1455;DHT22;721;48.168;12.818;2024-02-28T08:35:06;6.10;45.70
1455;DHT22;721;48.168;12.818;2024-02-28T08:37:33;6.20;44.90
1455;DHT22;721;48.168;12.818;2024-02-28T08:40:00;6.20;42.80
1455;DHT22;721;48.168;12.818;2024-02-28T08:42:28;6.20;42.80
1455;DHT22;721;48.168;12.818;2024-02-28T08:44:55;6.20;41.60
1455;DHT22;721;48.168;12.818;2024-02-28T08:47:23;6.10;41.00
1455;DHT22;721;48.168;12.818;2024-02-28T08:49:50;7.00;41.60
1455;DHT22;721;48.168;12.818;2024-02-28T08:52:18;6.30;40.50
1455;DHT22;721;48.168;12.818;2024-02-28T08:54:44;6.20;40.80
1455;DHT22;721;48.168;12.818;2024-02-28T08:57:11;6.20;41.30
1455;DHT22;721;48.168;12.818;2024-02-28T08:59:40;6.20;41.30
1455;DHT22;721;48.168;12.818;2024-02-28T09:02:07;6.30;41.60
1455;DHT22;721;48.168;12.818;2024-02-28T09:04:34;6.50;41.50
1455;DHT22;721;48.168;12.818;2024-02-28T09:07:01;6.40;41.20
1455;DHT22;721;48.168;12.818;2024-02-28T09:09:28;6.50;40.90
1455;DHT22;721;48.168;12.818;2024-02-28T09:11:57;6.30;40.40
1455;DHT22;721;48.168;12.818;2024-02-28T09:14:24;6.40;40.00
1455;DHT22;721;48.168;12.818;2024-02-28T09:16:52;6.40;39.90
1455;DHT22;721;48.168;12.818;2024-02-28T09:19:21;6.40;40.30
1455;DHT22;721;48.168;12.818;2024-02-28T09:21:48;6.40;39.80
1455;DHT22;721;48.168;12.818;2024-02-28T09:24:15;6.60;38.90
1455;DHT22;721;48.168;12.818;2024-02-28T09:26:42;6.60;38.40
1455;DHT22;721;48.168;12.818;2024-02-28T09:29:09;6.50;39.90
1455;DHT22;721;48.168;12.818;2024-02-28T09:31:35;6.60;38.10
1455;DHT22;721;48.168;12.818;2024-02-28T09:34:03;6.50;38.30
1455;DHT22;721;48.168;12.818;2024-02-28T09:36:33;7.00;38.70
1455;DHT22;721;48.168;12.818;2024-02-28T09:39:00;6.60;38.20
1455;DHT22;721;48.168;12.818;2024-02-28T09:41:27;6.60;37.40
1455;DHT22;721;48.168;12.818;2024-02-28T09:43:54;6.60;38.30
1455;DHT22;721;48.168;12.818;2024-02-28T09:46:21;6.70;38.40
1455;DHT22;721;48.168;12.818;2024-02-28T09:48:49;6.70;38.20
1455;DHT22;721;48.168;12.818;2024-02-28T09:51:19;6.70;36.00
1455;DHT22;721;48.168;12.818;2024-02-28T09:53:49;6.70;36.50
1455;DHT22;721;48.168;12.818;2024-02-28T09:56:16;6.70;36.40
1455;DHT22;721;48.168;12.818;2024-02-28T09:58:44;6.90;37.60
1455;DHT22;721;48.168;12.818;2024-02-28T10:01:11;6.70;38.40
1455;DHT22;721;48.168;12.818;2024-02-28T10:03:41;6.90;38.10
1455;DHT22;721;48.168;12.818;2024-02-28T10:06:09;6.60;38.30
1455;DHT22;721;48.168;12.818;2024-02-28T10:08:37;6.70;38.40
1455;DHT22;721;48.168;12.818;2024-02-28T10:11:04;6.70;37.90
1455;DHT22;721;48.168;12.818;2024-02-28T10:13:31;6.70;36.40
1455;DHT22;721;48.168;12.818;2024-02-28T10:15:58;6.70;37.20
1455;DHT22;721;48.168;12.818;2024-02-28T10:18:25;6.70;36.50
1455;DHT22;721;48.168;12.818;2024-02-28T10:20:53;6.40;36.40
1455;DHT22;721;48.168;12.818;2024-02-28T10:23:20;7.10;38.10
1455;DHT22;721;48.168;12.818;2024-02-28T10:25:48;6.60;38.30
1455;DHT22;721;48.168;12.818;2024-02-28T10:28:15;6.40;38.20
1455;DHT22;721;48.168;12.818;2024-02-28T10:30:43;6.70;38.80
1455;DHT22;721;48.168;12.818;2024-02-28T10:33:11;6.80;38.10
1455;DHT22;721;48.168;12.818;2024-02-28T10:35:39;7.00;37.70
1455;DHT22;721;48.168;12.818;2024-02-28T10:38:06;6.90;36.20
1455;DHT22;721;48.168;12.818;2024-02-28T10:40:33;7.20;34.80
1455;DHT22;721;48.168;12.818;2024-02-28T10:43:02;7.20;33.70
1455;DHT22;721;48.168;12.818;2024-02-28T10:45:31;6.80;33.70
1455;DHT22;721;48.168;12.818;2024-02-28T10:47:58;6.80;35.30
1455;DHT22;721;48.168;12.818;2024-02-28T10:50:25;7.20;34.00
1455;DHT22;721;48.168;12.818;2024-02-28T10:52:53;6.90;34.40
1455;DHT22;721;48.168;12.818;2024-02-28T10:55:21;7.70;33.60
1455;DHT22;721;48.168;12.818;2024-02-28T10:57:56;6.90;33.30
1455;DHT22;721;48.168;12.818;2024-02-28T11:00:26;7.00;32.70
1455;DHT22;721;48.168;12.818;2024-02-28T11:02:54;7.20;33.80
1455;DHT22;721;48.168;12.818;2024-02-28T11:05:20;7.10;32.00
1455;DHT22;721;48.168;12.818;2024-02-28T11:07:51;7.20;30.60
1455;DHT22;721;48.168;12.818;2024-02-28T11:10:17;7.20;30.50
1455;DHT22;721;48.168;12.818;2024-02-28T11:12:54;7.20;30.00
1455;DHT22;721;48.168;12.818;2024-02-28T11:15:26;7.20;29.30
1455;DHT22;721;48.168;12.818;2024-02-28T11:17:53;7.20;30.00
1455;DHT22;721;48.168;12.818;2024-02-28T11:20:20;7.20;30.60
1455;DHT22;721;48.168;12.818;2024-02-28T11:22:48;7.50;30.00
1455;DHT22;721;48.168;12.818;2024-02-28T11:25:15;7.30;29.70
1455;DHT22;721;48.168;12.818;2024-02-28T11:27:46;7.30;30.10
1455;DHT22;721;48.168;12.818;2024-02-28T11:30:13;7.30;29.40
1455;DHT22;721;48.168;12.818;2024-02-28T11:32:42;7.70;30.00
1455;DHT22;721;48.168;12.818;2024-02-28T11:35:09;7.30;29.70
1455;DHT22;721;48.168;12.818;2024-02-28T11:37:38;7.70;30.00
1455;DHT22;721;48.168;12.818;2024-02-28T11:40:07;7.40;30.00
1455;DHT22;721;48.168;12.818;2024-02-28T11:42:35;7.40;28.20
1455;DHT22;721;48.168;12.818;2024-02-28T11:45:02;7.20;28.30
1455;DHT22;721;48.168;12.818;2024-02-28T11:47:31;7.20;29.40
1455;DHT22;721;48.168;12.818;2024-02-28T11:50:01;7.30;29.70
1455;DHT22;721;48.168;12.818;2024-02-28T11:52:27;7.60;28.70
1455;DHT22;721;48.168;12.818;2024-02-28T11:54:54;7.20;28.60
1455;DHT22;721;48.168;12.818;2024-02-28T11:57:21;7.20;29.40
1455;DHT22;721;48.168;12.818;2024-02-28T11:59:48;7.50;30.10
1455;DHT22;721;48.168;12.818;2024-02-28T12:02:16;7.30;30.10
1455;DHT22;721;48.168;12.818;2024-02-28T12:04:44;7.20;30.10
1455;DHT22;721;48.168;12.818;2024-02-28T12:07:12;8.00;28.60
1455;DHT22;721;48.168;12.818;2024-02-28T12:09:39;7.30;28.70
1455;DHT22;721;48.168;12.818;2024-02-28T12:12:07;7.30;29.00
1455;DHT22;721;48.168;12.818;2024-02-28T12:14:36;7.20;28.50
1455;DHT22;721;48.168;12.818;2024-02-28T12:17:04;7.40;29.80
1455;DHT22;721;48.168;12.818;2024-02-28T12:19:30;7.30;29.70
1455;DHT22;721;48.168;12.818;2024-02-28T12:21:57;7.40;29.70
1455;DHT22;721;48.168;12.818;2024-02-28T12:24:26;7.40;28.50
1455;DHT22;721;48.168;12.818;2024-02-28T12:26:53;7.60;28.10
1455;DHT22;721;48.168;12.818;2024-02-28T12:29:20;7.80;27.70
1455;DHT22;721;48.168;12.818;2024-02-28T12:31:47;7.40;27.40
1455;DHT22;721;48.168;12.818;2024-02-28T12:34:13;7.30;28.50
1455;DHT22;721;48.168;12.818;2024-02-28T12:36:41;7.30;29.50
1455;DHT22;721;48.168;12.818;2024-02-28T12:39:08;7.70;28.90
1455;DHT22;721;48.168;12.818;2024-02-28T12:41:38;7.50;27.50
1455;DHT22;721;48.168;12.818;2024-02-28T12:44:05;7.50;27.70
1455;DHT22;721;48.168;12.818;2024-02-28T12:46:32;8.00;28.00
1455;DHT22;721;48.168;12.818;2024-02-28T12:48:59;7.60;27.30
1455;DHT22;721;48.168;12.818;2024-02-28T12:51:37;7.70;25.80
1455;DHT22;721;48.168;12.818;2024-02-28T12:54:04;8.20;26.20
1455;DHT22;721;48.168;12.818;2024-02-28T12:56:31;7.70;25.10
1455;DHT22;721;48.168;12.818;2024-02-28T12:58:59;8.00;25.80
1455;DHT22;721;48.168;12.818;2024-02-28T13:01:26;7.90;25.30
1455;DHT22;721;48.168;12.818;2024-02-28T13:03:53;7.70;24.40
1455;DHT22;721;48.168;12.818;2024-02-28T13:06:20;7.70;25.00
1455;DHT22;721;48.168;12.818;2024-02-28T13:08:47;7.70;24.90
1455;DHT22;721;48.168;12.818;2024-02-28T13:11:18;7.80;23.90
1455;DHT22;721;48.168;12.818;2024-02-28T13:13:46;7.70;23.80
1455;DHT22;721;48.168;12.818;2024-02-28T13:16:14;7.70;23.90
1455;DHT22;721;48.168;12.818;2024-02-28T13:18:41;7.70;23.20
1455;DHT22;721;48.168;12.818;2024-02-28T13:21:08;7.80;23.40
1455;DHT22;721;48.168;12.818;2024-02-28T13:23:35;7.80;22.90
1455;DHT22;721;48.168;12.818;2024-02-28T13:26:03;8.10;22.70
1455;DHT22;721;48.168;12.818;2024-02-28T13:28:30;7.80;23.30
1455;DHT22;721;48.168;12.818;2024-02-28T13:30:57;7.90;23.30
1455;DHT22;721;48.168;12.818;2024-02-28T13:33:25;7.70;23.60
1455;DHT22;721;48.168;12.818;2024-02-28T13:35:52;7.70;23.10
1455;DHT22;721;48.168;12.818;2024-02-28T13:38:20;7.60;23.40
1455;DHT22;721;48.168;12.818;2024-02-28T13:40:47;7.60;23.90
1455;DHT22;721;48.168;12.818;2024-02-28T13:43:15;7.50;23.60
1455;DHT22;721;48.168;12.818;2024-02-28T13:45:47;7.60;24.10
1455;DHT22;721;48.168;12.818;2024-02-28T13:48:16;7.60;24.50
1455;DHT22;721;48.168;12.818;2024-02-28T13:50:45;7.70;24.40
1455;DHT22;721;48.168;12.818;2024-02-28T13:53:12;7.90;23.50
1455;DHT22;721;48.168;12.818;2024-02-28T13:55:39;8.50;22.40
1455;DHT22;721;48.168;12.818;2024-02-28T13:58:06;7.90;21.70
1455;DHT22;721;48.168;12.818;2024-02-28T14:00:33;7.90;22.00
1455;DHT22;721;48.168;12.818;2024-02-28T14:03:00;7.90;21.70
1455;DHT22;721;48.168;12.818;2024-02-28T14:05:27;7.80;22.10
1455;DHT22;721;48.168;12.818;2024-02-28T14:07:56;8.30;22.30
1455;DHT22;721;48.168;12.818;2024-02-28T14:10:23;8.10;22.80
1455;DHT22;721;48.168;12.818;2024-02-28T14:12:50;8.40;22.40
1455;DHT22;721;48.168;12.818;2024-02-28T14:15:18;7.80;22.00
1455;DHT22;721;48.168;12.818;2024-02-28T14:17:45;8.00;22.40
1455;DHT22;721;48.168;12.818;2024-02-28T14:20:11;8.10;22.60
1455;DHT22;721;48.168;12.818;2024-02-28T14:22:38;7.80;22.60
1455;DHT22;721;48.168;12.818;2024-02-28T14:25:11;7.70;22.90
1455;DHT22;721;48.168;12.818;2024-02-28T14:27:38;7.70;22.40
1455;DHT22;721;48.168;12.818;2024-02-28T14:30:06;7.80;22.00
1455;DHT22;721;48.168;12.818;2024-02-28T14:32:34;7.90;22.00
1455;DHT22;721;48.168;12.818;2024-02-28T14:35:01;7.80;21.70
1455;DHT22;721;48.168;12.818;2024-02-28T14:37:28;7.90;21.60
1455;DHT22;721;48.168;12.818;2024-02-28T14:39:55;7.70;21.90
1455;DHT22;721;48.168;12.818;2024-02-28T14:42:23;7.70;21.90
1455;DHT22;721;48.168;12.818;2024-02-28T14:44:50;8.00;22.10
1455;DHT22;721;48.168;12.818;2024-02-28T14:47:18;7.70;21.90
1455;DHT22;721;48.168;12.818;2024-02-28T14:49:45;7.90;22.20
1455;DHT22;721;48.168;12.818;2024-02-28T14:52:12;7.60;21.30
1455;DHT22;721;48.168;12.818;2024-02-28T14:54:39;7.60;21.60
1455;DHT22;721;48.168;12.818;2024-02-28T14:57:06;7.50;21.60
1455;DHT22;721;48.168;12.818;2024-02-28T14:59:34;7.40;22.10
1455;DHT22;721;48.168;12.818;2024-02-28T15:02:01;7.70;22.80
1455;DHT22;721;48.168;12.818;2024-02-28T15:04:28;7.60;23.60
1455;DHT22;721;48.168;12.818;2024-02-28T15:06:54;7.50;22.70
1455;DHT22;721;48.168;12.818;2024-02-28T15:09:21;7.50;22.20
1455;DHT22;721;48.168;12.818;2024-02-28T15:11:48;7.30;22.20
1455;DHT22;721;48.168;12.818;2024-02-28T15:14:15;7.50;21.70
1455;DHT22;721;48.168;12.818;2024-02-28T15:16:43;7.40;21.50
1455;DHT22;721;48.168;12.818;2024-02-28T15:19:10;7.50;20.80
1455;DHT22;721;48.168;12.818;2024-02-28T15:21:37;7.90;20.70
1455;DHT22;721;48.168;12.818;2024-02-28T15:24:04;7.50;20.90
1455;DHT22;721;48.168;12.818;2024-02-28T15:26:31;7.40;21.00
1455;DHT22;721;48.168;12.818;2024-02-28T15:28:58;7.50;21.50
1455;DHT22;721;48.168;12.818;2024-02-28T15:31:24;7.50;20.80
1455;DHT22;721;48.168;12.818;2024-02-28T15:33:54;7.40;20.10
1455;DHT22;721;48.168;12.818;2024-02-28T15:36:21;7.40;20.10
1455;DHT22;721;48.168;12.818;2024-02-28T15:38:48;7.80;20.10
1455;DHT22;721;48.168;12.818;2024-02-28T15:41:15;7.50;20.30
1455;DHT22;721;48.168;12.818;2024-02-28T15:43:41;7.60;19.80
1455;DHT22;721;48.168;12.818;2024-02-28T15:46:08;7.70;19.70
1455;DHT22;721;48.168;12.818;2024-02-28T15:48:36;7.60;18.90
1455;DHT22;721;48.168;12.818;2024-02-28T15:51:04;7.50;19.30
1455;DHT22;721;48.168;12.818;2024-02-28T15:53:32;7.60;19.90
1455;DHT22;721;48.168;12.818;2024-02-28T15:56:00;7.60;19.20
1455;DHT22;721;48.168;12.818;2024-02-28T15:58:27;7.80;19.40
1455;DHT22;721;48.168;12.818;2024-02-28T16:00:54;7.70;18.40
1455;DHT22;721;48.168;12.818;2024-02-28T16:03:21;7.70;17.90
1455;DHT22;721;48.168;12.818;2024-02-28T16:05:48;7.80;17.80
1455;DHT22;721;48.168;12.818;2024-02-28T16:08:16;7.70;17.20
1455;DHT22;721;48.168;12.818;2024-02-28T16:10:45;7.90;18.00
1455;DHT22;721;48.168;12.818;2024-02-28T16:13:12;7.60;17.90
1455;DHT22;721;48.168;12.818;2024-02-28T16:15:39;7.70;18.50
1455;DHT22;721;48.168;12.818;2024-02-28T16:18:06;7.70;18.50